Terminal Aerodrome Forecast
Issued by NWS

Home | Current Version | Previous Version | Text Only | Print | Product List | Glossary On
Versions: 1 2 3 4 5 6 7 8 9 10 11 12 13 14 15 16 17 18 19 20 21 22 23
000
FTUS44 KCRP 031100
TAFLRD
TAF
KLRD 031125Z 0312/0412 VRB03KT 4SM -RA BR OVC003
     FM031600 14006KT 6SM BR OVC006
     FM031900 16008KT P6SM BKN015
     FM032100 16012KT P6SM SCT025
     FM040700 14010KT P6SM OVC009=

USA.gov is the U.S. government's official web portal to all federal, state and local government web resources and services.